Terminal Aerodrome Forecast
Issued by NWS Wakefield, VA

Home | Current Version | Previous Version | Text Only | Print | Product List | Glossary On
Versions: 1 2 3 4 5 6 7 8 9 10 11 12 13 14 15 16 17 18 19 20 21 22 23 24
000
FTUS41 KAKQ 051302 AAA
TAFRIC
TAF AMD
KRIC 051302Z 0513/0612 03003KT 6SM BR OVC004
      TEMPO 0513/0514 5SM BR OVC002
     FM051400 06005KT 5SM BR BKN009 OVC040
     FM051600 09007KT P6SM VCSH BKN030
     FM060000 12005KT 5SM -RA BR SCT015 OVC050
     FM060900 16004KT 3SM BR OVC005=

USA.gov is the U.S. government's official web portal to all federal, state and local government web resources and services.